Time;durP1;ratioP1;P1;durP2;ratioP2;P2;SDS_P1;SDS_P2;PMS_P1;PMS_P2;Temp;Humidity;BMP_temperature;BMP_pressure;BME280_temperature;BME280_humidity;BME280_pressure;Samples;Min_cycle;Max_cycle;Signal;HPM_P1;HPM_P2
2023/03/14 00:00:16;;;;;;;;;;;;;;;-1.56;100.00;100236.78;5112161;28;839;-61
2023/03/14 00:02:42;;;;;;;;;;;;;;;-1.54;100.00;100240.00;5112223;28;842;-61
2023/03/14 00:05:09;;;;;;;;;;;;;;;-1.49;100.00;100237.19;5112026;28;897;-61
2023/03/14 00:07:37;;;;;;;;;;;;;;;-1.48;100.00;100236.03;5110459;28;887;-61
2023/03/14 00:10:07;;;;;;;;;;;;;;;-1.38;100.00;100226.06;5111769;28;1881;-61
2023/03/14 00:12:35;;;;;;;;;;;;;;;-1.35;100.00;100220.81;5111796;28;1176;-61
2023/03/14 00:15:03;;;;;;;;;;;;;;;-1.37;100.00;100220.31;5111887;28;921;-62
2023/03/14 00:17:31;;;;;;;;;;;;;;;-1.37;100.00;100217.59;5111899;28;866;-62
2023/03/14 00:20:03;;;;;;;;;;;;;;;-1.34;100.00;100213.47;5111864;28;815;-63
2023/03/14 00:22:31;;;;;;;;;;;;;;;-1.52;100.00;100213.38;5111900;28;854;-62
2023/03/14 00:24:57;;;;;;;;;;;;;;;-1.65;100.00;100215.06;5111731;28;892;-63
2023/03/14 00:27:24;;;;;;;;;;;;;;;-1.83;100.00;100204.44;5111889;28;882;-63
2023/03/14 00:29:51;;;;;;;;;;;;;;;-1.86;100.00;100203.97;5111701;28;1913;-63
2023/03/14 00:32:17;;;;;;;;;;;;;;;-1.85;100.00;100202.84;5111789;28;808;-63
2023/03/14 00:34:44;;;;;;;;;;;;;;;-1.94;100.00;100191.16;5111785;28;851;-63
2023/03/14 00:37:10;;;;;;;;;;;;;;;-2.09;100.00;100188.81;5111705;28;866;-62
2023/03/14 00:39:37;;;;;;;;;;;;;;;-2.06;100.00;100185.50;5111844;28;832;-61
2023/03/14 00:42:03;;;;;;;;;;;;;;;-1.85;100.00;100183.09;5111932;28;871;-62
2023/03/14 00:44:31;;;;;;;;;;;;;;;-1.68;100.00;100174.25;5112171;28;878;-62
2023/03/14 00:46:58;;;;;;;;;;;;;;;-1.73;100.00;100172.47;5111656;28;882;-61
2023/03/14 00:49:24;;;;;;;;;;;;;;;-1.76;100.00;100164.94;5111839;28;1893;-61
2023/03/14 00:51:51;;;;;;;;;;;;;;;-1.79;100.00;100156.63;5111757;28;867;-61
2023/03/14 00:54:19;;;;;;;;;;;;;;;-1.87;100.00;100158.19;5111766;28;850;-61
2023/03/14 00:56:45;;;;;;;;;;;;;;;-1.90;100.00;100151.50;5111732;28;913;-61
2023/03/14 00:59:11;;;;;;;;;;;;;;;-1.79;100.00;100149.31;5111688;28;898;-63
2023/03/14 01:01:38;;;;;;;;;;;;;;;-1.78;100.00;100145.50;5112551;28;783;-61
2023/03/14 01:04:06;;;;;;;;;;;;;;;-1.94;100.00;100157.81;5111488;28;918;-61
2023/03/14 01:06:32;;;;;;;;;;;;;;;-2.01;100.00;100155.56;5111948;28;873;-61
2023/03/14 01:08:58;;;;;;;;;;;;;;;-1.92;100.00;100151.00;5111660;28;1889;-61
2023/03/14 01:11:26;;;;;;;;;;;;;;;-1.81;100.00;100151.53;5111836;28;1333;-62
2023/03/14 01:13:53;;;;;;;;;;;;;;;-1.73;100.00;100153.50;5111747;28;825;-61
2023/03/14 01:16:20;;;;;;;;;;;;;;;-1.57;100.00;100156.59;5111506;28;1224;-62
2023/03/14 01:18:47;;;;;;;;;;;;;;;-1.34;100.00;100151.91;5111609;28;890;-62
2023/03/14 01:21:24;;;;;;;;;;;;;;;-1.17;100.00;100155.75;5114994;27;921;-63
2023/03/14 01:23:52;;;;;;;;;;;;;;;-1.09;100.00;100158.53;5114923;28;886;-60
2023/03/14 01:26:20;;;;;;;;;;;;;;;-1.02;100.00;100152.63;5114824;27;1045;-60
2023/03/14 01:28:47;;;;;;;;;;;;;;;-0.97;100.00;100151.69;5115197;28;1938;-61
2023/03/14 01:31:14;;;;;;;;;;;;;;;-0.92;100.00;100154.22;5114787;28;906;-63
2023/03/14 01:33:41;;;;;;;;;;;;;;;-0.95;100.00;100163.03;5114846;28;866;-63
2023/03/14 01:36:08;;;;;;;;;;;;;;;-0.99;100.00;100157.41;5114697;27;866;-59
2023/03/14 01:38:36;;;;;;;;;;;;;;;-0.96;100.00;100158.69;5114679;28;823;-61
2023/03/14 01:41:03;;;;;;;;;;;;;;;-0.92;100.00;100155.03;5114660;27;854;-62
2023/03/14 01:43:30;;;;;;;;;;;;;;;-0.84;100.00;100159.66;5114622;28;851;-62
2023/03/14 01:46:05;;;;;;;;;;;;;;;-0.78;100.00;100156.81;5114589;28;870;-61
2023/03/14 01:48:50;;;;;;;;;;;;;;;-0.78;100.00;100163.03;5113144;28;1373;-61
2023/03/14 01:51:24;;;;;;;;;;;;;;;-0.87;100.00;100170.38;5114487;27;902;-63
2023/03/14 01:53:51;;;;;;;;;;;;;;;-0.90;100.00;100165.56;5114363;28;842;-62
2023/03/14 01:56:18;;;;;;;;;;;;;;;-0.93;100.00;100160.78;5114356;28;869;-63
2023/03/14 01:58:46;;;;;;;;;;;;;;;-0.98;100.00;100164.47;5114405;28;892;-63
2023/03/14 02:01:16;;;;;;;;;;;;;;;-0.99;100.00;100159.34;5114256;28;886;-63
2023/03/14 02:03:48;;;;;;;;;;;;;;;-1.12;100.00;100159.13;5114276;28;870;-63
2023/03/14 02:06:15;;;;;;;;;;;;;;;-1.35;100.00;100161.13;5114141;28;1052;-63
2023/03/14 02:08:43;;;;;;;;;;;;;;;-1.62;100.00;100159.44;5114154;27;1889;-62
2023/03/14 02:11:10;;;;;;;;;;;;;;;-1.79;100.00;100165.59;5113849;28;1305;-62
2023/03/14 02:13:36;;;;;;;;;;;;;;;-1.90;100.00;100169.66;5114147;28;815;-62
2023/03/14 02:16:03;;;;;;;;;;;;;;;-1.95;100.00;100169.78;5114012;28;804;-62
2023/03/14 02:18:29;;;;;;;;;;;;;;;-1.95;100.00;100167.88;5113938;28;858;-62
2023/03/14 02:21:02;;;;;;;;;;;;;;;-1.95;100.00;100178.69;5113853;28;902;-62
2023/03/14 02:23:45;;;;;;;;;;;;;;;-1.95;100.00;100173.28;5112374;28;883;-61
2023/03/14 02:26:22;;;;;;;;;;;;;;;-2.00;100.00;100169.94;5113813;28;898;-62
2023/03/14 02:28:50;;;;;;;;;;;;;;;-2.08;100.00;100166.81;5113702;28;1975;-61
2023/03/14 02:31:16;;;;;;;;;;;;;;;-2.13;100.00;100164.25;5112457;28;1546;-61
2023/03/14 02:33:44;;;;;;;;;;;;;;;-2.14;100.00;100164.56;5113710;28;816;-61
2023/03/14 02:36:13;;;;;;;;;;;;;;;-2.10;100.00;100160.13;5113613;28;990;-61
2023/03/14 02:38:43;;;;;;;;;;;;;;;-2.12;100.00;100156.94;5113561;28;913;-62
2023/03/14 02:41:10;;;;;;;;;;;;;;;-2.12;100.00;100154.22;5113534;28;834;-61
2023/03/14 02:43:36;;;;;;;;;;;;;;;-2.17;100.00;100152.44;5113448;28;811;-63
2023/03/14 02:46:04;;;;;;;;;;;;;;;-2.21;100.00;100159.56;5113315;28;911;-63
2023/03/14 02:48:40;;;;;;;;;;;;;;;-2.21;100.00;100156.06;5113304;28;855;-64
2023/03/14 02:51:07;;;;;;;;;;;;;;;-2.14;100.00;100157.22;5113193;28;957;-64
2023/03/14 02:53:35;;;;;;;;;;;;;;;-2.14;100.00;100146.41;5113398;28;819;-61
2023/03/14 02:56:01;;;;;;;;;;;;;;;-2.15;100.00;100141.31;5113161;28;919;-62
2023/03/14 02:58:27;;;;;;;;;;;;;;;-2.17;100.00;100154.34;5113150;28;861;-62
2023/03/14 03:00:54;;;;;;;;;;;;;;;-2.20;100.00;100150.34;5113066;28;917;-64
2023/03/14 03:03:20;;;;;;;;;;;;;;;-2.14;100.00;100153.72;5113063;28;882;-63
2023/03/14 03:05:48;;;;;;;;;;;;;;;-2.13;100.00;100150.72;5112994;28;814;-63
2023/03/14 03:08:15;;;;;;;;;;;;;;;-2.09;100.00;100150.88;5112845;28;940;-62
2023/03/14 03:10:41;;;;;;;;;;;;;;;-2.15;100.00;100150.22;5112067;28;1889;-62
2023/03/14 03:13:08;;;;;;;;;;;;;;;-2.26;100.00;100154.31;5112849;28;870;-62
2023/03/14 03:15:34;;;;;;;;;;;;;;;-2.34;100.00;100153.13;5112869;28;851;-62
2023/03/14 03:18:01;;;;;;;;;;;;;;;-2.30;100.00;100154.09;5112736;28;893;-64
2023/03/14 03:20:27;;;;;;;;;;;;;;;-2.23;100.00;100147.47;5112799;28;850;-64
2023/03/14 03:22:54;;;;;;;;;;;;;;;-2.32;100.00;100137.38;5112516;28;823;-65
2023/03/14 03:25:20;;;;;;;;;;;;;;;-2.54;100.00;100145.47;5111449;28;1385;-62
2023/03/14 03:27:47;;;;;;;;;;;;;;;-2.73;100.00;100140.19;5112543;28;850;-62
2023/03/14 03:30:13;;;;;;;;;;;;;;;-2.70;100.00;100137.69;5112429;28;1970;-61
2023/03/14 03:32:40;;;;;;;;;;;;;;;-2.57;100.00;100137.97;5112523;28;910;-62
2023/03/14 03:35:06;;;;;;;;;;;;;;;-2.59;100.00;100130.16;5112774;28;886;-64
2023/03/14 03:37:33;;;;;;;;;;;;;;;-2.62;100.00;100119.16;5112416;28;914;-63
2023/03/14 03:40:00;;;;;;;;;;;;;;;-2.72;100.00;100115.56;5112413;28;854;-64
2023/03/14 03:42:27;;;;;;;;;;;;;;;-2.80;100.00;100118.97;5111913;28;1061;-64
2023/03/14 03:44:54;;;;;;;;;;;;;;;-2.93;100.00;100114.41;5112289;28;807;-63
2023/03/14 03:47:20;;;;;;;;;;;;;;;-3.01;100.00;100115.94;5112549;28;860;-64
2023/03/14 03:49:47;;;;;;;;;;;;;;;-3.06;100.00;100123.38;5112175;28;1890;-63
2023/03/14 03:52:13;;;;;;;;;;;;;;;-3.12;100.00;100122.66;5112206;28;902;-61
2023/03/14 03:54:40;;;;;;;;;;;;;;;-3.19;100.00;100127.69;5112152;28;811;-61
2023/03/14 03:57:07;;;;;;;;;;;;;;;-3.24;100.00;100125.91;5112153;28;859;-61
2023/03/14 03:59:34;;;;;;;;;;;;;;;-3.25;100.00;100120.78;5112117;28;839;-62
2023/03/14 04:02:00;;;;;;;;;;;;;;;-3.22;100.00;100122.88;5110675;28;1314;-61
2023/03/14 04:04:26;;;;;;;;;;;;;;;-3.17;100.00;100118.16;5112052;28;835;-62
2023/03/14 04:06:52;;;;;;;;;;;;;;;-3.15;100.00;100121.38;5111944;28;851;-62
2023/03/14 04:09:19;;;;;;;;;;;;;;;-3.06;100.00;100123.38;5111926;28;1894;-63
2023/03/14 04:11:46;;;;;;;;;;;;;;;-2.94;100.00;100120.94;5111987;28;894;-62
2023/03/14 04:14:13;;;;;;;;;;;;;;;-2.83;100.00;100127.72;5111959;28;922;-62
2023/03/14 04:16:40;;;;;;;;;;;;;;;-2.72;100.00;100126.38;5111920;28;875;-62
2023/03/14 04:19:06;;;;;;;;;;;;;;;-2.61;100.00;100128.84;5110524;28;1345;-63
2023/03/14 04:21:33;;;;;;;;;;;;;;;-2.47;100.00;100124.19;5111798;28;905;-62
2023/03/14 04:23:59;;;;;;;;;;;;;;;-2.47;100.00;100122.28;5111927;28;871;-62
2023/03/14 04:26:26;;;;;;;;;;;;;;;-2.53;100.00;100128.13;5111822;28;807;-63
2023/03/14 04:28:53;;;;;;;;;;;;;;;-2.79;100.00;100126.00;5111682;28;1918;-64
2023/03/14 04:31:21;;;;;;;;;;;;;;;-2.87;100.00;100118.63;5111917;28;867;-62
2023/03/14 04:33:48;;;;;;;;;;;;;;;-2.83;100.00;100118.81;5111730;28;875;-62
2023/03/14 04:36:14;;;;;;;;;;;;;;;-2.73;100.00;100122.09;5111706;28;870;-62
2023/03/14 04:38:40;;;;;;;;;;;;;;;-2.56;100.00;100117.91;5111751;28;882;-62
2023/03/14 04:41:07;;;;;;;;;;;;;;;-2.52;100.00;100119.72;5112045;28;878;-62
2023/03/14 04:43:33;;;;;;;;;;;;;;;-2.63;100.00;100121.03;5111971;28;827;-62
2023/03/14 04:46:00;;;;;;;;;;;;;;;-2.79;100.00;100119.81;5111891;28;874;-64
2023/03/14 04:48:27;;;;;;;;;;;;;;;-2.93;100.00;100119.81;5112024;28;822;-64
2023/03/14 04:50:54;;;;;;;;;;;;;;;-2.99;100.00;100113.72;5111710;28;1877;-64
2023/03/14 04:53:21;;;;;;;;;;;;;;;-2.79;100.00;100114.41;5111841;28;894;-63
2023/03/14 04:55:51;;;;;;;;;;;;;;;-2.65;100.00;100120.53;5115585;28;842;-62
2023/03/14 04:58:18;;;;;;;;;;;;;;;-2.56;100.00;100118.72;5115471;28;847;-62
2023/03/14 05:00:45;;;;;;;;;;;;;;;-2.47;100.00;100124.19;5115462;28;839;-63
2023/03/14 05:03:11;;;;;;;;;;;;;;;-2.28;100.00;100119.41;5115313;28;870;-63
2023/03/14 05:05:38;;;;;;;;;;;;;;;-1.92;100.00;100114.97;5115449;28;862;-64
2023/03/14 05:08:04;;;;;;;;;;;;;;;-1.54;100.00;100119.91;5115350;28;1048;-65
2023/03/14 05:10:31;;;;;;;;;;;;;;;-1.26;100.00;100128.63;5115131;28;1909;-64
2023/03/14 05:12:58;;;;;;;;;;;;;;;-1.08;100.00;100130.25;5115520;28;826;-63
2023/03/14 05:15:24;;;;;;;;;;;;;;;-0.80;100.00;100126.47;5115476;28;855;-64
2023/03/14 05:17:51;;;;;;;;;;;;;;;-0.48;100.00;100128.72;5115623;28;949;-63
2023/03/14 05:20:17;;;;;;;;;;;;;;;-0.29;100.00;100122.94;5115263;28;897;-63
2023/03/14 05:22:44;;;;;;;;;;;;;;;-0.13;100.00;100127.88;5115495;28;896;-63
2023/03/14 05:25:11;;;;;;;;;;;;;;;0.10;100.00;100131.97;5114048;28;1325;-63
2023/03/14 05:27:37;;;;;;;;;;;;;;;0.50;100.00;100123.53;5113722;28;1333;-64
2023/03/14 05:30:05;;;;;;;;;;;;;;;1.13;100.00;100120.94;5114835;28;1902;-63
2023/03/14 05:32:31;;;;;;;;;;;;;;;1.62;100.00;100125.81;5114845;28;823;-64
2023/03/14 05:34:59;;;;;;;;;;;;;;;2.24;100.00;100129.53;5114819;28;929;-63
2023/03/14 05:37:26;;;;;;;;;;;;;;;2.73;100.00;100132.34;5115125;28;894;-64
2023/03/14 05:39:52;;;;;;;;;;;;;;;3.23;100.00;100122.94;5115099;28;847;-64
2023/03/14 05:42:21;;;;;;;;;;;;;;;3.61;100.00;100123.63;5114562;28;972;-64
2023/03/14 05:44:48;;;;;;;;;;;;;;;3.57;100.00;100128.19;5115738;28;784;-64
2023/03/14 05:47:15;;;;;;;;;;;;;;;3.72;100.00;100129.41;5114694;28;980;-65
2023/03/14 05:49:43;;;;;;;;;;;;;;;4.00;100.00;100126.63;5114633;28;1881;-67
2023/03/14 05:52:09;;;;;;;;;;;;;;;4.02;100.00;100119.66;5113276;28;1329;-64
2023/03/14 05:54:36;;;;;;;;;;;;;;;4.48;100.00;100122.00;5114603;28;862;-66
2023/03/14 05:57:02;;;;;;;;;;;;;;;5.26;100.00;100124.97;5114645;28;930;-65
2023/03/14 05:59:29;;;;;;;;;;;;;;;5.57;100.00;100117.78;5114743;28;902;-65
2023/03/14 06:01:55;;;;;;;;;;;;;;;5.76;100.00;100117.78;5114932;28;827;-65
2023/03/14 06:04:22;;;;;;;;;;;;;;;5.97;100.00;100124.84;5114167;28;823;-65
2023/03/14 06:06:49;;;;;;;;;;;;;;;6.19;100.00;100126.03;5113997;28;834;-65
2023/03/14 06:09:15;;;;;;;;;;;;;;;5.72;100.00;100117.72;5114017;28;1881;-64
2023/03/14 06:11:42;;;;;;;;;;;;;;;5.72;100.00;100133.38;5114099;28;835;-63
2023/03/14 06:14:08;;;;;;;;;;;;;;;5.89;100.00;100119.22;5114022;28;886;-65
2023/03/14 06:16:34;;;;;;;;;;;;;;;5.89;100.00;100124.69;5113883;28;878;-64
2023/03/14 06:19:01;;;;;;;;;;;;;;;5.90;100.00;100128.22;5112531;28;1138;-67
2023/03/14 06:21:27;;;;;;;;;;;;;;;6.13;100.00;100122.81;5112555;28;1198;-67
2023/03/14 06:23:54;;;;;;;;;;;;;;;6.43;100.00;100111.16;5113824;28;831;-66
2023/03/14 06:26:21;;;;;;;;;;;;;;;6.64;100.00;100117.00;5113753;28;818;-66
2023/03/14 06:28:48;;;;;;;;;;;;;;;7.06;100.00;100109.78;5113833;28;843;-66
2023/03/14 06:31:14;;;;;;;;;;;;;;;7.59;99.31;100108.91;5113598;28;910;-65
2023/03/14 06:33:41;;;;;;;;;;;;;;;7.77;98.62;100115.41;5113869;28;815;-66
2023/03/14 06:36:07;;;;;;;;;;;;;;;7.86;97.40;100112.34;5113587;28;842;-68
2023/03/14 06:38:34;;;;;;;;;;;;;;;7.95;95.06;100116.38;5113585;28;889;-67
2023/03/14 06:41:04;;;;;;;;;;;;;;;7.90;95.01;100113.97;5113484;28;901;-67
2023/03/14 06:43:31;;;;;;;;;;;;;;;7.97;96.11;100105.78;5113454;28;814;-66
2023/03/14 06:45:57;;;;;;;;;;;;;;;8.32;94.07;100106.50;5113564;28;886;-67
2023/03/14 06:48:24;;;;;;;;;;;;;;;8.66;92.29;100101.72;5113300;28;890;-66
2023/03/14 06:50:50;;;;;;;;;;;;;;;8.92;91.53;100100.72;5113311;28;1894;-65
2023/03/14 06:53:16;;;;;;;;;;;;;;;9.44;86.65;100094.31;5113249;28;886;-66
2023/03/14 06:55:43;;;;;;;;;;;;;;;9.91;84.44;100096.03;5113258;28;850;-66
2023/03/14 06:58:11;;;;;;;;;;;;;;;10.14;80.26;100094.91;5113089;27;1120;-64
2023/03/14 07:00:38;;;;;;;;;;;;;;;10.38;79.12;100085.88;5111789;28;1298;-66
2023/03/14 07:03:04;;;;;;;;;;;;;;;10.96;76.81;100083.06;5113128;28;894;-66
2023/03/14 07:05:34;;;;;;;;;;;;;;;11.45;76.48;100084.88;5113026;28;827;-65
2023/03/14 07:08:00;;;;;;;;;;;;;;;12.38;72.84;100083.59;5112959;28;890;-64
2023/03/14 07:10:27;;;;;;;;;;;;;;;13.02;68.57;100082.22;5112586;28;1894;-67
2023/03/14 07:12:53;;;;;;;;;;;;;;;12.89;67.38;100083.94;5112871;28;834;-66
2023/03/14 07:15:20;;;;;;;;;;;;;;;12.84;63.80;100090.72;5113036;28;882;-65
2023/03/14 07:17:48;;;;;;;;;;;;;;;12.91;63.62;100091.84;5112058;27;839;-65
2023/03/14 07:20:14;;;;;;;;;;;;;;;12.10;64.45;100081.81;5112673;28;850;-64
2023/03/14 07:22:51;;;;;;;;;;;;;;;;;;;;;
2023/03/14 07:25:27;;;;;;;;;;;;;;;12.77;63.00;100088.00;5091413;28;1065;-63
2023/03/14 07:27:54;;;;;;;;;;;;;;;13.39;59.46;100082.63;5112829;28;875;-64
2023/03/14 07:30:20;;;;;;;;;;;;;;;13.76;58.64;100073.44;5111181;28;1922;-64
2023/03/14 07:32:46;;;;;;;;;;;;;;;13.88;57.89;100067.31;5112482;28;929;-65
2023/03/14 07:35:19;;;;;;;;;;;;;;;13.66;57.56;100072.38;5112483;28;827;-64
2023/03/14 07:37:45;;;;;;;;;;;;;;;13.30;57.58;100085.13;5112425;28;834;-64
2023/03/14 07:40:14;;;;;;;;;;;;;;;13.07;58.16;100075.44;5112406;28;1019;-64
2023/03/14 07:42:42;;;;;;;;;;;;;;;13.12;57.65;100075.00;5112506;28;854;-64
2023/03/14 07:45:28;;;;;;;;;;;;;;;13.28;57.79;100069.66;5112318;28;866;-64
2023/03/14 07:47:59;;;;;;;;;;;;;;;13.13;58.73;100071.00;5112087;28;914;-63
2023/03/14 07:56:32;;;;;;;;;;;;;;;13.07;60.01;100058.78;5112124;28;601;-63
2023/03/14 07:59:00;;;;;;;;;;;;;;;13.03;59.14;100063.56;5112081;28;871;-63
2023/03/14 08:01:26;;;;;;;;;;;;;;;13.40;59.96;100068.34;5112033;28;965;-63
2023/03/14 08:03:53;;;;;;;;;;;;;;;13.60;57.70;100053.81;5112066;28;863;-63
2023/03/14 08:06:20;;;;;;;;;;;;;;;13.46;58.60;100038.94;5112046;28;1160;-63
2023/03/14 08:08:50;;;;;;;;;;;;;;;13.30;57.28;100047.06;5112267;28;1026;-63
2023/03/14 08:11:19;;;;;;;;;;;;;;;13.11;57.50;100048.44;5100546;28;1099;-63
2023/03/14 08:13:49;;;;;;;;;;;;;;;12.94;57.58;100041.88;5111921;28;905;-63
2023/03/14 08:22:32;;;;;;;;;;;;;;;12.59;57.85;100031.94;5112154;28;617;-62
2023/03/14 08:24:59;;;;;;;;;;;;;;;12.81;59.04;100026.97;5111868;28;894;-62
2023/03/14 08:27:26;;;;;;;;;;;;;;;13.11;57.59;100028.22;5111787;28;959;-63
2023/03/14 08:29:52;;;;;;;;;;;;;;;12.63;58.30;100027.13;5115661;28;1905;-63
2023/03/14 08:32:20;;;;;;;;;;;;;;;12.73;59.48;100023.47;5115976;28;827;-61
2023/03/14 08:34:46;;;;;;;;;;;;;;;12.97;59.08;100012.50;5115962;28;909;-61
2023/03/14 08:37:18;;;;;;;;;;;;;;;13.25;56.63;100008.63;5115910;28;826;-62
2023/03/14 08:39:48;;;;;;;;;;;;;;;13.54;55.23;100011.81;5115956;28;886;-64
2023/03/14 08:42:15;;;;;;;;;;;;;;;13.55;53.44;99999.53;5116165;28;843;-63
2023/03/14 08:44:42;;;;;;;;;;;;;;;13.43;53.15;100005.66;5116002;28;864;-64
2023/03/14 08:47:08;;;;;;;;;;;;;;;13.24;54.58;99988.41;5115977;28;787;-61
2023/03/14 08:49:35;;;;;;;;;;;;;;;13.37;53.21;99988.66;5115778;28;1948;-62
2023/03/14 08:52:05;;;;;;;;;;;;;;;13.04;51.18;99988.25;5116503;28;764;-64
2023/03/14 08:54:31;;;;;;;;;;;;;;;13.12;52.43;99991.75;5115587;28;811;-61
2023/03/14 08:56:58;;;;;;;;;;;;;;;13.24;49.11;99987.63;5114380;28;1170;-64
2023/03/14 08:59:24;;;;;;;;;;;;;;;13.15;50.47;99979.78;5115684;28;882;-64
2023/03/14 09:01:53;;;;;;;;;;;;;;;13.22;47.92;99976.91;5115850;27;874;-66
2023/03/14 09:04:21;;;;;;;;;;;;;;;12.84;41.09;99979.78;5115420;28;879;-64
2023/03/14 09:06:47;;;;;;;;;;;;;;;12.65;42.11;99980.38;5115609;27;891;-65
2023/03/14 09:09:15;;;;;;;;;;;;;;;12.87;42.55;99980.94;5115500;28;1960;-64
2023/03/14 09:11:47;;;;;;;;;;;;;;;13.04;42.90;99968.06;5115024;28;1293;-64
2023/03/14 09:14:17;;;;;;;;;;;;;;;12.75;40.33;99979.47;5115150;28;1032;-66
2023/03/14 09:16:47;;;;;;;;;;;;;;;12.58;40.98;99969.34;5114969;28;855;-65
2023/03/14 09:19:14;;;;;;;;;;;;;;;12.60;42.08;99967.75;5113825;28;1253;-65
2023/03/14 09:21:40;;;;;;;;;;;;;;;12.58;42.28;99967.38;5113775;28;1370;-64
2023/03/14 09:24:07;;;;;;;;;;;;;;;12.35;42.34;99951.34;5115067;28;870;-65
2023/03/14 09:26:33;;;;;;;;;;;;;;;12.21;40.96;99968.13;5114963;28;822;-66
2023/03/14 09:29:00;;;;;;;;;;;;;;;12.33;41.25;99964.06;5114855;28;1972;-66
2023/03/14 09:31:28;;;;;;;;;;;;;;;12.40;40.72;99961.22;5115103;28;831;-66
2023/03/14 09:33:53;;;;;;;;;;;;;;;12.41;42.16;99954.47;5114778;28;859;-65
2023/03/14 09:36:20;;;;;;;;;;;;;;;12.33;41.00;99951.00;5114830;28;933;-65
2023/03/14 10:09:53;;;;;;;;;;;;;;;13.00;36.12;99898.72;5379108;22;1952;-55
2023/03/14 10:12:20;;;;;;;;;;;;;;;12.91;36.59;99903.19;5093761;28;819;-56
2023/03/14 10:14:51;;;;;;;;;;;;;;;12.92;36.87;99893.69;5093647;28;823;-56
2023/03/14 10:17:18;;;;;;;;;;;;;;;13.10;38.23;99887.88;5093521;28;832;-55
2023/03/14 10:19:58;;;;;;;;;;;;;;;13.48;39.94;99883.00;5093561;28;819;-55
2023/03/14 10:22:31;;;;;;;;;;;;;;;13.55;36.19;99882.91;5093395;28;851;-55
2023/03/14 10:25:02;;;;;;;;;;;;;;;13.10;37.46;99874.00;5093485;28;823;-55
2023/03/14 10:27:30;;;;;;;;;;;;;;;12.91;38.68;99869.91;5093398;28;855;-55
2023/03/14 10:29:58;;;;;;;;;;;;;;;13.11;36.38;99868.06;5093277;28;1959;-55
2023/03/14 10:32:35;;;;;;;;;;;;;;;13.24;35.47;99866.28;5093450;28;808;-55
2023/03/14 10:35:05;;;;;;;;;;;;;;;13.50;35.98;99860.38;5093598;28;859;-55
2023/03/14 10:37:31;;;;;;;;;;;;;;;13.62;37.94;99849.44;5093158;28;885;-56
2023/03/14 10:40:05;;;;;;;;;;;;;;;13.30;38.21;99849.19;5093004;28;886;-55
2023/03/14 10:42:34;;;;;;;;;;;;;;;13.59;37.43;99846.72;5093116;28;831;-53
2023/03/14 10:45:26;;;;;;;;;;;;;;;13.43;35.66;99839.06;5093014;28;839;-55
2023/03/14 10:47:52;;;;;;;;;;;;;;;13.36;37.35;99833.63;5088845;28;1944;-55
2023/03/14 10:50:28;;;;;;;;;;;;;;;13.53;37.63;99823.41;5093193;28;1885;-54
2023/03/14 10:52:56;;;;;;;;;;;;;;;13.57;36.76;99818.59;5073548;28;1409;-55
2023/03/14 10:55:24;;;;;;;;;;;;;;;13.61;36.57;99806.25;5092883;28;811;-55
2023/03/14 10:57:51;;;;;;;;;;;;;;;13.51;37.79;99803.66;5092795;28;922;-55
2023/03/14 11:00:33;;;;;;;;;;;;;;;13.78;37.09;99790.44;5092669;28;891;-55
2023/03/14 11:03:01;;;;;;;;;;;;;;;14.12;36.84;99785.84;5074435;28;1346;-56
2023/03/14 11:05:54;;;;;;;;;;;;;;;14.41;34.02;99786.84;5093002;28;894;-55
2023/03/14 11:08:29;;;;;;;;;;;;;;;14.45;33.77;99773.66;5089319;28;1101;-56
2023/03/14 11:11:15;;;;;;;;;;;;;;;14.53;36.57;99774.31;5092290;28;1975;-55
2023/03/14 11:13:51;;;;;;;;;;;;;;;14.49;36.62;99762.47;5092427;28;1228;-55
2023/03/14 11:16:18;;;;;;;;;;;;;;;14.61;36.54;99752.69;5092499;28;815;-55
2023/03/14 11:18:51;;;;;;;;;;;;;;;14.73;34.81;99746.47;5092392;28;866;-56
2023/03/14 11:21:21;;;;;;;;;;;;;;;14.55;35.67;99740.47;5092380;28;851;-56
2023/03/14 11:24:06;;;;;;;;;;;;;;;14.60;34.77;99732.44;5092272;28;819;-56
2023/03/14 11:26:51;;;;;;;;;;;;;;;14.82;35.51;99727.16;5092551;28;902;-56
2023/03/14 11:29:43;;;;;;;;;;;;;;;14.94;34.52;99728.50;5092145;28;1893;-56
2023/03/14 11:32:36;;;;;;;;;;;;;;;14.96;33.34;99725.28;5061339;28;1206;-56
2023/03/14 11:35:07;;;;;;;;;;;;;;;14.83;33.34;99720.41;5088914;28;1403;-56
2023/03/14 11:37:36;;;;;;;;;;;;;;;14.67;32.97;99715.59;5092262;28;882;-56
2023/03/14 11:40:09;;;;;;;;;;;;;;;14.70;32.40;99698.03;5092021;28;891;-56
2023/03/14 11:42:37;;;;;;;;;;;;;;;14.72;30.99;99696.81;5091983;28;875;-56
2023/03/14 11:45:03;;;;;;;;;;;;;;;14.83;32.58;99695.34;5092082;28;907;-56
2023/03/14 11:47:34;;;;;;;;;;;;;;;15.42;32.67;99682.31;5091995;28;843;-56
2023/03/14 11:50:07;;;;;;;;;;;;;;;15.50;32.43;99677.34;5091804;28;1951;-56
2023/03/14 11:52:33;;;;;;;;;;;;;;;15.32;33.30;99666.69;5091912;28;847;-56
2023/03/14 11:54:59;;;;;;;;;;;;;;;15.66;31.03;99654.22;5091761;28;839;-56
2023/03/14 11:57:25;;;;;;;;;;;;;;;15.88;29.89;99651.66;5091765;28;836;-56
2023/03/14 11:59:54;;;;;;;;;;;;;;;15.97;30.43;99654.56;5091678;28;906;-56
2023/03/14 12:02:21;;;;;;;;;;;;;;;16.00;31.52;99648.13;5091682;28;873;-56
2023/03/14 12:04:56;;;;;;;;;;;;;;;16.25;31.22;99633.41;5091416;28;878;-56
2023/03/14 12:07:29;;;;;;;;;;;;;;;16.33;31.46;99631.19;5091452;28;953;-56
2023/03/14 12:09:57;;;;;;;;;;;;;;;16.52;30.37;99621.81;5091532;28;1905;-56
2023/03/14 12:12:25;;;;;;;;;;;;;;;16.49;29.69;99625.50;5091652;28;815;-56
2023/03/14 12:14:53;;;;;;;;;;;;;;;16.45;30.04;99624.84;5091539;28;870;-56
2023/03/14 12:17:33;;;;;;;;;;;;;;;16.53;29.85;99611.41;5091590;28;807;-56
2023/03/14 12:20:03;;;;;;;;;;;;;;;16.57;30.42;99595.34;5091560;28;1041;-56
2023/03/14 12:22:42;;;;;;;;;;;;;;;16.84;30.14;99600.47;5091524;28;855;-56
2023/03/14 12:25:11;;;;;;;;;;;;;;;16.86;30.09;99592.41;5073413;28;705;-57
2023/03/14 12:27:41;;;;;;;;;;;;;;;17.06;30.31;99597.72;5091534;28;867;-56
2023/03/14 12:30:20;;;;;;;;;;;;;;;17.00;29.99;99593.16;5091404;28;1945;-56
2023/03/14 12:33:10;;;;;;;;;;;;;;;17.21;29.84;99586.81;5091311;28;1149;-56
2023/03/14 12:35:39;;;;;;;;;;;;;;;17.52;29.24;99583.34;5091270;28;848;-56
2023/03/14 12:38:11;;;;;;;;;;;;;;;17.74;28.09;99575.69;5091834;28;795;-56
2023/03/14 12:40:41;;;;;;;;;;;;;;;17.53;28.77;99577.28;5091363;28;910;-56
2023/03/14 12:43:28;;;;;;;;;;;;;;;17.02;28.94;99576.72;5091417;28;901;-56
2023/03/14 12:46:13;;;;;;;;;;;;;;;17.27;29.30;99564.69;5091152;28;1744;-56
2023/03/14 12:48:40;;;;;;;;;;;;;;;17.40;28.10;99557.00;5091224;28;946;-56
2023/03/14 12:51:20;;;;;;;;;;;;;;;17.58;28.46;99553.56;5091152;28;1886;-56
2023/03/14 12:54:02;;;;;;;;;;;;;;;17.61;28.58;99541.47;5091172;28;863;-56
2023/03/14 12:56:28;;;;;;;;;;;;;;;17.72;28.75;99546.66;5091237;28;795;-56
2023/03/14 12:59:04;;;;;;;;;;;;;;;17.97;28.96;99542.91;5091168;28;823;-56
2023/03/14 13:01:33;;;;;;;;;;;;;;;18.47;26.93;99537.31;5091183;28;882;-56
2023/03/14 13:04:05;;;;;;;;;;;;;;;18.46;27.54;99533.75;5091178;28;922;-56
2023/03/14 13:06:51;;;;;;;;;;;;;;;18.42;27.50;99521.16;5091049;28;859;-56
2023/03/14 13:09:26;;;;;;;;;;;;;;;18.42;27.15;99518.34;5090843;28;1961;-56
2023/03/14 13:12:00;;;;;;;;;;;;;;;18.45;27.97;99523.78;5091058;28;867;-56
2023/03/14 13:14:29;;;;;;;;;;;;;;;18.51;27.07;99518.34;5091304;28;796;-56
2023/03/14 13:16:55;;;;;;;;;;;;;;;18.67;26.59;99511.69;5094438;28;879;-56
2023/03/14 13:19:29;;;;;;;;;;;;;;;18.46;26.84;99513.38;5094650;28;843;-56
2023/03/14 13:22:02;;;;;;;;;;;;;;;18.36;27.10;99504.97;5094654;28;886;-56
2023/03/14 13:24:30;;;;;;;;;;;;;;;18.41;27.47;99506.34;5094906;28;849;-56
2023/03/14 13:26:57;;;;;;;;;;;;;;;18.33;28.14;99505.91;5094524;28;855;-56
2023/03/14 13:29:25;;;;;;;;;;;;;;;18.31;28.20;99497.19;5094470;28;1890;-56
2023/03/14 13:31:53;;;;;;;;;;;;;;;18.89;28.14;99494.78;5094459;28;807;-56
2023/03/14 13:34:20;;;;;;;;;;;;;;;18.93;26.90;99484.19;5094399;28;855;-56
2023/03/14 13:36:49;;;;;;;;;;;;;;;18.57;26.39;99483.69;5094397;28;888;-56
2023/03/14 13:39:25;;;;;;;;;;;;;;;18.22;27.03;99482.38;5094264;28;808;-56
2023/03/14 13:42:13;;;;;;;;;;;;;;;18.46;28.70;99472.19;5091483;28;1115;-56
2023/03/14 13:44:39;;;;;;;;;;;;;;;18.60;29.27;99465.19;5094223;28;894;-56
2023/03/14 13:47:11;;;;;;;;;;;;;;;18.47;31.74;99459.72;5094174;28;828;-56